createdAt,value
2017-08-19T00:00:48.706Z,92.6
2017-08-19T00:01:50.086Z,92.2
2017-08-19T00:02:51.477Z,92.5
2017-08-19T00:03:53.317Z,92.6
2017-08-19T00:04:55.579Z,92.3
2017-08-19T00:05:57.811Z,92.3
2017-08-19T00:07:00.101Z,92.6
2017-08-19T00:08:01.473Z,93.2
2017-08-19T00:09:03.744Z,92.6
2017-08-19T00:10:05.146Z,92.6
2017-08-19T00:11:06.520Z,92.5
2017-08-19T00:12:07.910Z,92.6
2017-08-19T00:13:09.358Z,93.2
2017-08-19T00:14:10.810Z,93.4
2017-08-19T00:15:12.266Z,92.6
2017-08-19T00:16:13.724Z,93.4
2017-08-19T00:17:15.288Z,92.4
2017-08-19T00:18:16.672Z,93.0
2017-08-19T00:19:18.133Z,92.6
2017-08-19T00:20:19.554Z,93.3
2017-08-19T00:21:20.935Z,93.0
2017-08-19T00:22:22.657Z,92.8
2017-08-19T00:23:24.004Z,92.7
2017-08-19T00:24:25.414Z,93.2
2017-08-19T00:25:26.806Z,93.1
2017-08-19T00:26:28.249Z,92.6
2017-08-19T00:27:29.722Z,92.9
2017-08-19T00:28:31.161Z,92.9
2017-08-19T00:29:32.707Z,92.7
2017-08-19T00:30:34.799Z,93.2
2017-08-19T00:32:17.132Z,92.7
2017-08-19T00:33:18.533Z,92.9
2017-08-19T00:34:19.913Z,93.4
2017-08-19T00:35:21.290Z,93.2
2017-08-19T00:36:22.665Z,93.1
2017-08-19T00:37:24.052Z,92.5
2017-08-19T00:38:25.430Z,92.9
2017-08-19T00:39:26.822Z,93.1
2017-08-19T00:40:28.204Z,92.8
2017-08-19T00:41:29.622Z,92.5
2017-08-19T00:42:31.332Z,92.5
2017-08-19T00:43:32.739Z,93.4
2017-08-19T00:44:34.149Z,93.1
2017-08-19T00:45:35.836Z,93.1
2017-08-19T00:46:37.287Z,92.8
2017-08-19T00:47:38.683Z,92.6
2017-08-19T00:48:40.060Z,92.8
2017-08-19T00:49:41.648Z,92.8
2017-08-19T00:50:43.035Z,92.5
2017-08-19T00:51:44.423Z,92.4
2017-08-19T00:52:45.850Z,92.6
2017-08-19T00:53:47.265Z,92.5
2017-08-19T00:54:48.666Z,93.0
2017-08-19T00:55:50.550Z,92.6
2017-08-19T00:56:52.280Z,92.4
2017-08-19T00:57:53.710Z,92.6
2017-08-19T00:58:55.094Z,92.8
2017-08-19T00:59:56.479Z,92.8
2017-08-19T01:00:57.884Z,92.5
2017-08-19T01:01:59.268Z,92.4
2017-08-19T01:03:00.864Z,92.9
2017-08-19T01:04:43.212Z,92.4
2017-08-19T01:05:44.586Z,93.0
2017-08-19T01:06:45.962Z,92.7
2017-08-19T01:07:47.339Z,93.4
2017-08-19T01:08:48.722Z,92.9
2017-08-19T01:09:50.173Z,92.6
2017-08-19T01:10:51.503Z,92.4
2017-08-19T01:11:52.914Z,92.5
2017-08-19T01:12:54.288Z,92.3
2017-08-19T01:13:55.663Z,92.4
2017-08-19T01:14:57.126Z,92.5
2017-08-19T01:15:59.030Z,92.4
2017-08-19T01:17:01.079Z,92.7
2017-08-19T01:18:03.407Z,92.4
2017-08-19T01:19:04.977Z,92.4
2017-08-19T01:20:47.398Z,92.6
2017-08-19T01:21:48.762Z,92.2
2017-08-19T01:22:50.136Z,92.0
2017-08-19T01:23:51.523Z,92.0
2017-08-19T01:24:52.902Z,92.0
2017-08-19T01:25:54.279Z,92.0
2017-08-19T01:26:55.654Z,91.7
2017-08-19T01:27:57.089Z,91.8
2017-08-19T01:28:58.713Z,91.7
2017-08-19T01:30:00.097Z,92.0
2017-08-19T01:31:01.481Z,91.6
2017-08-19T01:32:02.896Z,91.5
2017-08-19T01:33:04.346Z,91.6
2017-08-19T01:34:05.758Z,91.5
2017-08-19T01:35:07.188Z,91.6
2017-08-19T01:36:08.562Z,91.7
2017-08-19T01:37:09.950Z,91.8
2017-08-19T01:38:11.362Z,92.0
2017-08-19T01:39:12.816Z,91.9
2017-08-19T01:40:14.350Z,91.9
2017-08-19T01:41:15.787Z,91.6
2017-08-19T01:42:17.181Z,92.2
2017-08-19T01:43:18.545Z,91.8
2017-08-19T01:44:20.317Z,92.4
2017-08-19T01:45:21.685Z,92.4
2017-08-19T01:46:23.077Z,92.4
2017-08-19T01:47:24.564Z,92.1
2017-08-19T01:48:25.966Z,91.6
2017-08-19T01:49:27.458Z,91.5
2017-08-19T01:50:28.940Z,91.8
2017-08-19T01:51:30.362Z,92.2
2017-08-19T01:53:12.739Z,91.4
2017-08-19T01:54:14.113Z,91.6
2017-08-19T01:55:15.506Z,92.2
2017-08-19T01:56:16.871Z,91.5
2017-08-19T01:57:18.286Z,91.7
2017-08-19T01:58:20.406Z,91.8
2017-08-19T01:59:22.206Z,91.6
2017-08-19T02:00:23.565Z,91.6
2017-08-19T02:01:25.002Z,91.5
2017-08-19T02:02:26.396Z,91.5
2017-08-19T02:03:27.799Z,91.5
2017-08-19T02:04:29.386Z,91.5
2017-08-19T02:05:30.889Z,91.4
2017-08-19T02:06:32.375Z,91.6
2017-08-19T02:07:34.388Z,91.6
2017-08-19T02:08:36.157Z,91.3
2017-08-19T02:09:37.649Z,91.3
2017-08-19T02:10:39.138Z,90.9
2017-08-19T02:11:40.560Z,91.0
2017-08-19T02:12:41.961Z,90.9
2017-08-19T02:13:43.384Z,90.4
2017-08-19T02:14:45.157Z,90.7
2017-08-19T02:15:47.021Z,91.2
2017-08-19T02:16:49.132Z,91.5
2017-08-19T02:17:50.576Z,91.6
2017-08-19T02:18:52.112Z,91.5
2017-08-19T02:19:53.574Z,90.6
2017-08-19T02:21:35.942Z,91.3
2017-08-19T02:22:37.321Z,91.1
2017-08-19T02:23:38.699Z,91.5
2017-08-19T02:24:40.086Z,91.6
2017-08-19T02:25:41.452Z,91.5
2017-08-19T02:26:42.852Z,91.1
2017-08-19T02:27:44.227Z,91.4
2017-08-19T02:28:45.613Z,91.2
2017-08-19T02:29:46.986Z,91.4
2017-08-19T02:30:48.507Z,91.5
2017-08-19T02:31:50.027Z,91.3
2017-08-19T02:32:51.494Z,91.6
2017-08-19T02:33:52.893Z,91.2
2017-08-19T02:34:54.409Z,91.7
2017-08-19T02:35:55.794Z,91.4
2017-08-19T02:37:38.150Z,91.1
2017-08-19T02:38:39.573Z,91.4
2017-08-19T02:39:40.947Z,91.3
2017-08-19T02:40:42.321Z,90.7
2017-08-19T02:41:43.707Z,90.5
2017-08-19T02:42:45.093Z,90.7
2017-08-19T02:43:46.483Z,90.7
2017-08-19T02:44:47.859Z,90.4
2017-08-19T02:45:49.252Z,90.6
2017-08-19T02:46:50.625Z,90.7
2017-08-19T02:47:52.005Z,90.7
2017-08-19T02:48:53.408Z,90.9
2017-08-19T02:49:54.787Z,91.0
2017-08-19T02:50:56.184Z,91.2
2017-08-19T02:51:57.586Z,91.3
2017-08-19T02:52:58.973Z,91.4
2017-08-19T02:54:00.372Z,91.2
2017-08-19T02:55:01.756Z,90.9
2017-08-19T02:56:03.140Z,90.9
2017-08-19T02:57:04.628Z,91.4
2017-08-19T02:58:06.044Z,91.4
2017-08-19T02:59:07.452Z,90.6
2017-08-19T03:00:08.842Z,90.6
2017-08-19T03:01:10.240Z,90.4
2017-08-19T03:02:11.674Z,90.9
2017-08-19T03:03:13.064Z,91.6
2017-08-19T03:04:14.504Z,91.4
2017-08-19T03:05:15.898Z,91.6
2017-08-19T03:06:17.272Z,90.6
2017-08-19T03:07:18.657Z,91.4
2017-08-19T03:08:20.062Z,91.4
2017-08-19T03:10:02.423Z,91.5
2017-08-19T03:11:03.787Z,91.1
2017-08-19T03:12:05.170Z,91.1
2017-08-19T03:13:06.540Z,91.6
2017-08-19T03:14:07.925Z,91.5
2017-08-19T03:15:09.316Z,91.2
2017-08-19T03:16:10.689Z,91.4
2017-08-19T03:17:12.076Z,91.5
2017-08-19T03:18:13.448Z,91.6
2017-08-19T03:19:14.828Z,91.4
2017-08-19T03:20:16.200Z,91.5
2017-08-19T03:21:17.572Z,91.4
2017-08-19T03:22:18.944Z,91.2
2017-08-19T03:23:20.326Z,91.3
2017-08-19T03:24:21.703Z,91.7
2017-08-19T03:26:04.081Z,91.5
2017-08-19T03:27:05.463Z,91.3
2017-08-19T03:28:06.837Z,91.1
2017-08-19T03:29:08.231Z,90.7
2017-08-19T03:30:09.610Z,91.5
2017-08-19T03:31:10.980Z,91.5
2017-08-19T03:32:12.395Z,91.3
2017-08-19T03:33:13.819Z,91.4
2017-08-19T03:34:15.204Z,91.4
2017-08-19T03:35:16.618Z,91.4
2017-08-19T03:36:18.009Z,91.7
2017-08-19T03:37:19.428Z,91.6
2017-08-19T03:38:20.903Z,91.4
2017-08-19T03:39:22.378Z,92.1
2017-08-19T03:40:23.795Z,91.7
2017-08-19T03:41:25.255Z,91.6
2017-08-19T03:42:26.632Z,92.0
2017-08-19T03:43:28.034Z,91.8
2017-08-19T03:44:29.435Z,91.9
2017-08-19T03:45:30.863Z,92.1
2017-08-19T03:46:32.244Z,91.3
2017-08-19T03:47:33.658Z,91.3
2017-08-19T03:48:35.042Z,91.6
2017-08-19T03:49:36.604Z,92.0
2017-08-19T03:50:37.987Z,92.1
2017-08-19T03:51:39.495Z,92.5
2017-08-19T03:52:41.070Z,91.9
2017-08-19T03:53:42.448Z,91.7
2017-08-19T03:54:43.833Z,92.0
2017-08-19T03:55:45.255Z,91.9
2017-08-19T03:56:46.741Z,91.8
2017-08-19T03:58:29.115Z,91.5
2017-08-19T03:59:30.493Z,92.5
2017-08-19T04:00:31.891Z,92.2
2017-08-19T04:01:33.245Z,91.7
2017-08-19T04:02:34.668Z,91.7
2017-08-19T04:03:36.017Z,92.1
2017-08-19T04:04:37.403Z,91.9
2017-08-19T04:05:38.772Z,91.8
2017-08-19T04:06:40.150Z,92.5
2017-08-19T04:08:22.506Z,91.9
2017-08-19T04:09:23.892Z,91.5
2017-08-19T04:10:25.267Z,92.0
2017-08-19T04:11:26.642Z,92.3
2017-08-19T04:12:28.033Z,92.2
2017-08-19T04:13:29.466Z,92.0
2017-08-19T04:14:30.827Z,91.9
2017-08-19T04:15:32.208Z,92.5
2017-08-19T04:16:33.608Z,92.3
2017-08-19T04:17:34.988Z,91.4
2017-08-19T04:18:36.364Z,91.9
2017-08-19T04:19:37.751Z,91.7
2017-08-19T04:20:39.124Z,91.3
2017-08-19T04:21:40.542Z,91.8
2017-08-19T04:22:41.921Z,92.2
2017-08-19T04:24:24.411Z,92.1
2017-08-19T04:25:25.797Z,92.0
2017-08-19T04:26:27.174Z,91.9
2017-08-19T04:27:28.550Z,91.9
2017-08-19T04:28:29.944Z,92.1
2017-08-19T04:29:31.321Z,92.1
2017-08-19T04:30:33.213Z,92.1
2017-08-19T04:31:34.659Z,92.5
2017-08-19T04:32:36.037Z,92.0
2017-08-19T04:33:37.806Z,91.9
2017-08-19T04:34:39.144Z,91.5
2017-08-19T04:35:40.581Z,92.5
2017-08-19T04:36:41.967Z,91.7
2017-08-19T04:37:43.395Z,92.5
2017-08-19T04:38:44.858Z,91.8
2017-08-19T04:39:46.246Z,91.8
2017-08-19T04:40:47.785Z,91.8
2017-08-19T04:41:49.191Z,92.2
2017-08-19T04:42:50.579Z,91.8
2017-08-19T04:43:51.965Z,91.9
2017-08-19T04:44:53.347Z,91.5
2017-08-19T04:45:54.838Z,91.8
2017-08-19T04:46:56.228Z,91.2
2017-08-19T04:47:57.615Z,90.8
2017-08-19T04:48:59.036Z,90.4
2017-08-19T04:50:00.510Z,90.6
2017-08-19T04:51:01.902Z,90.0
2017-08-19T04:52:03.316Z,90.1
2017-08-19T04:53:04.841Z,89.9
2017-08-19T04:54:06.224Z,89.2
2017-08-19T04:55:07.655Z,89.4
2017-08-19T04:56:50.032Z,89.1
2017-08-19T04:57:51.472Z,88.9
2017-08-19T04:58:52.850Z,89.2
2017-08-19T04:59:54.230Z,89.4
2017-08-19T05:00:55.613Z,89.2
2017-08-19T05:01:56.994Z,89.0
2017-08-19T05:02:58.373Z,89.1
2017-08-19T05:03:59.825Z,89.3
2017-08-19T05:05:01.162Z,89.2
2017-08-19T05:06:02.541Z,88.1
2017-08-19T05:07:03.929Z,87.7
2017-08-19T05:08:05.335Z,87.7
2017-08-19T05:09:06.714Z,87.0
2017-08-19T05:10:08.260Z,86.4
2017-08-19T05:11:09.666Z,86.8
2017-08-19T05:12:52.032Z,85.9
2017-08-19T05:13:53.404Z,85.5
2017-08-19T05:14:54.801Z,85.0
2017-08-19T05:15:56.175Z,84.2
2017-08-19T05:16:57.574Z,84.3
2017-08-19T05:17:58.947Z,83.5
2017-08-19T05:19:00.339Z,83.6
2017-08-19T05:20:01.731Z,83.3
2017-08-19T05:21:03.104Z,83.4
2017-08-19T05:22:04.526Z,83.2
2017-08-19T05:23:05.903Z,82.9
2017-08-19T05:24:07.290Z,82.4
2017-08-19T05:25:08.677Z,83.1
2017-08-19T05:26:10.087Z,82.4
2017-08-19T05:27:11.468Z,82.0
2017-08-19T05:28:12.897Z,82.6
2017-08-19T05:29:14.266Z,82.3
2017-08-19T05:30:15.662Z,81.6
2017-08-19T05:31:17.048Z,81.9
2017-08-19T05:32:18.434Z,82.0
2017-08-19T05:33:19.942Z,81.5
2017-08-19T05:34:21.350Z,81.3
2017-08-19T05:35:22.736Z,81.0
2017-08-19T05:36:24.125Z,81.4
2017-08-19T05:37:25.532Z,80.8
2017-08-19T05:38:26.927Z,80.6
2017-08-19T05:39:28.305Z,80.8
2017-08-19T05:40:29.716Z,79.8
2017-08-19T05:41:31.086Z,79.6
2017-08-19T05:42:32.515Z,79.5
2017-08-19T05:43:34.256Z,79.9
2017-08-19T05:45:15.620Z,79.5
2017-08-19T05:46:17.009Z,78.3
2017-08-19T05:47:39.006Z,78.4
2017-08-19T05:48:40.392Z,78.5
2017-08-19T05:49:41.776Z,78.5
2017-08-19T05:50:43.159Z,78.3
2017-08-19T05:51:44.541Z,77.8
2017-08-19T05:52:45.927Z,77.6
2017-08-19T05:53:47.309Z,77.4
2017-08-19T05:54:48.697Z,77.3
2017-08-19T05:55:50.098Z,77.4
2017-08-19T05:56:51.479Z,76.8
2017-08-19T05:57:52.863Z,76.3
2017-08-19T05:58:54.248Z,75.9
2017-08-19T05:59:55.643Z,76.2
2017-08-19T06:00:57.043Z,75.3
2017-08-19T06:01:58.436Z,75.1
2017-08-19T06:02:59.849Z,75.3
2017-08-19T06:04:01.230Z,74.2
2017-08-19T06:05:02.617Z,73.7
2017-08-19T06:06:04.019Z,74.0
2017-08-19T06:07:05.403Z,73.0
2017-08-19T06:08:06.791Z,72.9
2017-08-19T06:09:08.182Z,73.1
2017-08-19T06:10:09.576Z,72.6
2017-08-19T06:11:10.969Z,73.2
2017-08-19T06:12:12.353Z,71.5
2017-08-19T06:13:13.741Z,71.7
2017-08-19T06:14:15.124Z,71.2
2017-08-19T06:15:16.513Z,71.4
2017-08-19T06:16:17.899Z,71.8
2017-08-19T06:17:19.283Z,71.5
2017-08-19T06:18:20.668Z,71.0
2017-08-19T06:19:22.052Z,70.7
2017-08-19T06:20:24.226Z,70.6
2017-08-19T06:21:25.562Z,70.6
2017-08-19T06:22:26.949Z,70.1
2017-08-19T06:23:28.335Z,70.9
2017-08-19T06:24:29.804Z,70.8
2017-08-19T06:25:31.192Z,70.4
2017-08-19T06:26:32.575Z,70.1
2017-08-19T06:27:34.041Z,70.5
2017-08-19T06:28:35.398Z,70.2
2017-08-19T06:29:36.794Z,69.9
2017-08-19T06:30:38.185Z,69.6
2017-08-19T06:31:39.604Z,70.1
2017-08-19T06:32:40.985Z,69.9
2017-08-19T06:34:23.551Z,70.6
2017-08-19T06:35:24.918Z,70.6
2017-08-19T06:36:26.305Z,69.0
2017-08-19T06:37:27.690Z,68.8
2017-08-19T06:38:29.081Z,68.4
2017-08-19T06:39:30.463Z,68.5
2017-08-19T06:40:31.852Z,68.0
2017-08-19T06:41:33.238Z,67.7
2017-08-19T06:42:34.623Z,68.0
2017-08-19T06:43:36.010Z,67.0
2017-08-19T06:44:37.398Z,67.0
2017-08-19T06:45:38.783Z,67.6
2017-08-19T06:46:40.180Z,66.9
2017-08-19T06:47:41.581Z,66.7
2017-08-19T06:49:25.039Z,66.8
2017-08-19T06:50:26.539Z,67.2
2017-08-19T06:51:27.886Z,67.1
2017-08-19T06:52:29.261Z,66.3
2017-08-19T06:53:30.655Z,65.7
2017-08-19T06:54:32.045Z,65.8
2017-08-19T06:55:33.432Z,65.5
2017-08-19T06:56:34.821Z,65.4
2017-08-19T06:57:36.210Z,65.9
2017-08-19T06:58:37.596Z,66.6
2017-08-19T06:59:38.984Z,66.3
2017-08-19T07:00:40.379Z,66.6
2017-08-19T07:01:41.912Z,63.8
2017-08-19T07:02:43.286Z,63.9
2017-08-19T07:03:44.686Z,64.8
2017-08-19T07:04:46.071Z,64.9
2017-08-19T07:05:47.456Z,64.0
2017-08-19T07:06:48.847Z,64.1
2017-08-19T07:07:50.236Z,63.9
2017-08-19T07:08:51.632Z,64.1
2017-08-19T07:09:53.014Z,64.1
2017-08-19T07:10:54.604Z,62.8
2017-08-19T07:11:56.020Z,61.7
2017-08-19T07:12:57.457Z,62.4
2017-08-19T07:13:58.851Z,62.7
2017-08-19T07:15:00.421Z,62.7
2017-08-19T07:16:01.816Z,61.1
2017-08-19T07:17:03.875Z,62.3
2017-08-19T07:18:05.314Z,62.3
2017-08-19T07:19:06.718Z,61.5
2017-08-19T07:20:08.104Z,61.4
2017-08-19T07:21:10.092Z,59.6
2017-08-19T07:22:52.442Z,61.2
2017-08-19T07:23:53.837Z,60.8
2017-08-19T07:24:55.232Z,60.5
2017-08-19T07:25:56.624Z,59.5
2017-08-19T07:26:58.012Z,61.0
2017-08-19T07:27:59.409Z,59.2
2017-08-19T07:29:00.820Z,60.4
2017-08-19T07:30:02.211Z,61.1
2017-08-19T07:31:03.604Z,59.6
2017-08-19T07:32:05.698Z,59.4
2017-08-19T07:33:07.076Z,59.3
2017-08-19T07:34:08.868Z,59.2
2017-08-19T07:35:11.017Z,57.7
2017-08-19T07:36:12.419Z,58.1
2017-08-19T07:37:13.853Z,58.3
2017-08-19T07:38:15.275Z,58.0
2017-08-19T07:39:17.566Z,58.7
2017-08-19T07:40:18.965Z,59.5
2017-08-19T07:41:20.412Z,59.4
2017-08-19T07:42:21.801Z,57.8
2017-08-19T07:43:23.266Z,58.9
2017-08-19T07:44:24.683Z,58.0
2017-08-19T07:45:26.070Z,57.1
2017-08-19T07:46:27.463Z,57.4
2017-08-19T07:47:28.861Z,57.5
2017-08-19T07:48:30.289Z,58.2
2017-08-19T07:49:31.668Z,59.7
2017-08-19T07:50:33.062Z,59.5
2017-08-19T07:51:34.456Z,59.4
2017-08-19T07:52:35.851Z,60.5
2017-08-19T07:53:37.234Z,61.2
2017-08-19T07:54:38.625Z,61.8
2017-08-19T07:55:40.040Z,61.7
2017-08-19T07:56:41.515Z,62.4
2017-08-19T07:57:42.920Z,62.7
2017-08-19T07:58:44.310Z,61.5
2017-08-19T07:59:45.702Z,61.5
2017-08-19T08:00:47.110Z,61.5
2017-08-19T08:01:48.517Z,61.6
2017-08-19T08:02:49.986Z,61.5
2017-08-19T08:03:51.368Z,59.2
2017-08-19T08:04:52.782Z,58.5
2017-08-19T08:05:54.172Z,58.5
2017-08-19T08:06:55.590Z,59.1
2017-08-19T08:07:56.980Z,59.4
2017-08-19T08:08:58.371Z,58.1
2017-08-19T08:09:59.828Z,56.1
2017-08-19T08:11:01.212Z,54.8
2017-08-19T08:12:02.600Z,56.1
2017-08-19T08:13:03.996Z,55.2
2017-08-19T08:14:05.390Z,56.0
2017-08-19T08:15:06.783Z,57.1
2017-08-19T08:16:08.171Z,57.0
2017-08-19T08:17:09.574Z,57.8
2017-08-19T08:18:10.989Z,57.7
2017-08-19T08:19:12.380Z,58.7
2017-08-19T08:20:54.773Z,59.6
2017-08-19T08:21:56.143Z,60.9
2017-08-19T08:22:57.541Z,60.9
2017-08-19T08:23:58.930Z,61.3
2017-08-19T08:25:00.331Z,60.7
2017-08-19T08:26:01.717Z,61.1
2017-08-19T08:27:03.109Z,61.9
2017-08-19T08:28:04.500Z,62.4
2017-08-19T08:29:05.888Z,62.6
2017-08-19T08:30:07.279Z,62.5
2017-08-19T08:31:08.666Z,62.1
2017-08-19T08:32:10.055Z,62.9
2017-08-19T08:33:11.444Z,63.2
2017-08-19T08:34:12.834Z,62.6
2017-08-19T08:35:54.221Z,62.8
2017-08-19T08:36:55.607Z,62.5
2017-08-19T08:37:56.994Z,63.0
2017-08-19T08:38:58.387Z,62.5
2017-08-19T08:39:59.774Z,61.9
2017-08-19T08:41:01.161Z,63.0
2017-08-19T08:42:02.551Z,62.9
2017-08-19T08:43:03.944Z,62.9
2017-08-19T08:44:05.330Z,62.7
2017-08-19T08:45:06.717Z,62.4
2017-08-19T08:46:08.105Z,64.3
2017-08-19T08:47:09.495Z,63.6
2017-08-19T08:48:10.919Z,62.6
2017-08-19T08:49:12.306Z,63.0
2017-08-19T08:50:13.696Z,64.2
2017-08-19T08:51:15.086Z,63.1
2017-08-19T08:52:16.473Z,62.5
2017-08-19T08:53:17.867Z,64.0
2017-08-19T08:54:19.254Z,64.0
2017-08-19T08:55:20.648Z,64.1
2017-08-19T08:56:22.036Z,64.1
2017-08-19T08:57:23.423Z,65.1
2017-08-19T08:58:24.813Z,65.2
2017-08-19T08:59:26.199Z,65.5
2017-08-19T09:00:27.585Z,65.3
2017-08-19T09:01:28.970Z,65.8
2017-08-19T09:02:30.371Z,66.9
2017-08-19T09:03:31.761Z,66.4
2017-08-19T09:04:33.150Z,67.2
2017-08-19T09:05:34.536Z,68.2
2017-08-19T09:06:35.928Z,66.9
2017-08-19T09:08:17.318Z,67.0
2017-08-19T09:09:18.703Z,66.3
2017-08-19T09:10:41.715Z,65.4
2017-08-19T09:11:43.099Z,64.9
2017-08-19T09:12:44.490Z,64.2
2017-08-19T09:13:45.877Z,64.9
2017-08-19T09:14:47.262Z,64.6
2017-08-19T09:15:48.650Z,63.6
2017-08-19T09:16:50.073Z,64.8
2017-08-19T09:17:51.445Z,64.5
2017-08-19T09:18:52.831Z,63.9
2017-08-19T09:19:54.217Z,64.8
2017-08-19T09:20:55.611Z,65.3
2017-08-19T09:21:57.000Z,66.5
2017-08-19T09:22:58.408Z,67.3
2017-08-19T09:23:59.799Z,65.5
2017-08-19T09:25:01.188Z,67.0
2017-08-19T09:26:02.575Z,67.3
2017-08-19T09:27:03.959Z,67.6
2017-08-19T09:28:05.352Z,66.7
2017-08-19T09:29:06.740Z,68.6
2017-08-19T09:30:08.132Z,68.8
2017-08-19T09:31:09.522Z,67.8
2017-08-19T09:32:10.919Z,68.1
2017-08-19T09:33:12.307Z,68.3
2017-08-19T09:34:13.690Z,68.0
2017-08-19T09:35:15.080Z,67.7
2017-08-19T09:36:16.467Z,67.0
2017-08-19T09:37:17.856Z,66.2
2017-08-19T09:38:19.248Z,66.3
2017-08-19T09:39:20.669Z,65.3
2017-08-19T09:40:22.055Z,64.3
2017-08-19T09:41:23.443Z,62.5
2017-08-19T09:42:24.838Z,61.7
2017-08-19T09:43:26.226Z,62.1
2017-08-19T09:44:27.616Z,61.1
2017-08-19T09:45:29.004Z,61.6
2017-08-19T09:46:30.414Z,60.5
2017-08-19T09:47:31.805Z,59.9
2017-08-19T09:48:33.196Z,56.2
2017-08-19T09:49:34.587Z,58.1
2017-08-19T09:50:35.980Z,56.1
2017-08-19T09:51:37.374Z,56.3
2017-08-19T09:52:38.773Z,55.4
2017-08-19T09:53:40.182Z,54.8
2017-08-19T09:54:41.550Z,54.9
2017-08-19T09:56:23.924Z,54.7
2017-08-19T09:57:25.317Z,54.3
2017-08-19T09:58:26.710Z,52.5
2017-08-19T09:59:28.107Z,50.2
2017-08-19T10:00:29.503Z,50.4
2017-08-19T10:01:30.904Z,50.9
2017-08-19T10:02:32.299Z,52.2
2017-08-19T10:03:33.693Z,51.7
2017-08-19T10:04:35.145Z,52.0
2017-08-19T10:05:36.535Z,51.4
2017-08-19T10:06:37.931Z,52.2
2017-08-19T10:07:39.324Z,51.5
2017-08-19T10:08:40.738Z,51.0
2017-08-19T10:09:42.134Z,51.3
2017-08-19T10:10:43.531Z,50.8
2017-08-19T10:11:44.924Z,51.6
2017-08-19T10:12:46.314Z,51.4
2017-08-19T10:13:47.709Z,52.4
2017-08-19T10:14:49.105Z,53.8
2017-08-19T10:15:50.502Z,53.4
2017-08-19T10:16:51.896Z,52.2
2017-08-19T10:17:53.294Z,52.0
2017-08-19T10:18:54.684Z,52.3
2017-08-19T10:19:56.080Z,52.0
2017-08-19T10:20:57.474Z,51.9
2017-08-19T10:21:58.869Z,53.1
2017-08-19T10:23:00.344Z,54.4
2017-08-19T10:24:01.738Z,54.1
2017-08-19T10:25:03.133Z,55.0
2017-08-19T10:26:04.524Z,55.7
2017-08-19T10:27:05.919Z,55.0
2017-08-19T10:28:48.286Z,56.3
2017-08-19T10:29:49.676Z,57.2
2017-08-19T10:30:51.066Z,57.8
2017-08-19T10:31:52.457Z,57.6
2017-08-19T10:32:53.847Z,57.7
2017-08-19T10:33:55.284Z,59.2
2017-08-19T10:34:56.653Z,57.3
2017-08-19T10:35:58.042Z,56.3
2017-08-19T10:36:59.439Z,56.1
2017-08-19T10:38:00.821Z,56.4
2017-08-19T10:39:02.210Z,56.4
2017-08-19T10:40:03.601Z,56.3
2017-08-19T10:41:04.993Z,57.7
2017-08-19T10:42:06.391Z,57.7
2017-08-19T10:43:07.783Z,57.2
2017-08-19T10:44:50.168Z,57.6
2017-08-19T10:45:51.555Z,57.6
2017-08-19T10:46:52.945Z,57.8
2017-08-19T10:47:54.334Z,57.5
2017-08-19T10:48:55.729Z,56.2
2017-08-19T10:49:57.119Z,55.0
2017-08-19T10:50:58.521Z,55.3
2017-08-19T10:51:59.911Z,54.9
2017-08-19T10:53:01.313Z,55.9
2017-08-19T10:54:02.703Z,51.5
2017-08-19T10:55:04.096Z,50.1
2017-08-19T10:56:05.492Z,48.4
2017-08-19T10:57:06.885Z,49.4
2017-08-19T10:58:08.281Z,49.8
2017-08-19T10:59:09.681Z,48.5
2017-08-19T11:00:11.081Z,48.1
2017-08-19T11:01:12.476Z,48.0
2017-08-19T11:02:13.870Z,48.3
2017-08-19T11:03:15.265Z,48.6
2017-08-19T11:04:16.666Z,48.0
2017-08-19T11:05:18.061Z,49.4
2017-08-19T11:06:19.455Z,50.7
2017-08-19T11:07:20.858Z,50.3
2017-08-19T11:08:22.254Z,49.5
2017-08-19T11:09:23.651Z,50.2
2017-08-19T11:10:25.097Z,50.5
2017-08-19T11:11:26.489Z,50.5
2017-08-19T11:12:27.881Z,50.5
2017-08-19T11:13:29.269Z,51.4
2017-08-19T11:14:30.677Z,52.4
2017-08-19T11:15:32.067Z,53.1
2017-08-19T11:17:14.440Z,52.8
2017-08-19T11:18:15.838Z,52.9
2017-08-19T11:19:17.233Z,52.6
2017-08-19T11:20:18.625Z,52.9
2017-08-19T11:21:20.019Z,52.6
2017-08-19T11:22:21.416Z,50.5
2017-08-19T11:23:22.805Z,50.3
2017-08-19T11:24:24.203Z,48.9
2017-08-19T11:25:25.613Z,47.8
2017-08-19T11:26:27.000Z,48.0
2017-08-19T11:27:28.391Z,47.2
2017-08-19T11:28:29.786Z,46.6
2017-08-19T11:29:31.183Z,46.3
2017-08-19T11:30:32.581Z,46.1
2017-08-19T11:31:33.979Z,46.3
2017-08-19T11:32:35.369Z,46.5
2017-08-19T11:33:36.765Z,46.3
2017-08-19T11:34:38.160Z,46.0
2017-08-19T11:35:39.557Z,46.0
2017-08-19T11:36:40.957Z,46.0
2017-08-19T11:37:42.351Z,45.1
2017-08-19T11:38:43.751Z,45.3
2017-08-19T11:39:45.161Z,43.8
2017-08-19T11:40:46.559Z,45.3
2017-08-19T11:41:47.955Z,45.4
2017-08-19T11:42:49.348Z,44.8
2017-08-19T11:43:50.752Z,45.0
2017-08-19T11:44:52.146Z,44.2
2017-08-19T11:45:53.542Z,42.8
2017-08-19T11:46:54.937Z,43.0
2017-08-19T11:47:56.332Z,42.8
2017-08-19T11:48:57.734Z,41.6
2017-08-19T11:49:59.127Z,41.5
2017-08-19T11:51:00.525Z,41.2
2017-08-19T11:52:01.922Z,43.3
2017-08-19T11:53:03.320Z,42.8
2017-08-19T11:54:04.716Z,42.6
2017-08-19T11:55:06.118Z,41.6
2017-08-19T11:56:07.514Z,42.8
2017-08-19T11:57:08.914Z,42.7
2017-08-19T11:58:10.309Z,41.8
2017-08-19T11:59:11.710Z,42.8
2017-08-19T12:00:13.107Z,43.9
2017-08-19T12:01:14.513Z,43.0
2017-08-19T12:02:55.911Z,41.7
2017-08-19T12:03:57.307Z,41.7
2017-08-19T12:04:58.696Z,41.7
2017-08-19T12:06:00.091Z,42.0
2017-08-19T12:07:01.495Z,40.8
2017-08-19T12:08:02.892Z,40.4
2017-08-19T12:09:04.293Z,39.7
2017-08-19T12:10:05.708Z,39.7
2017-08-19T12:11:07.100Z,38.1
2017-08-19T12:12:08.496Z,38.2
2017-08-19T12:13:09.891Z,37.7
2017-08-19T12:14:11.286Z,37.6
2017-08-19T12:15:12.692Z,39.0
2017-08-19T12:16:14.085Z,38.1
2017-08-19T12:17:15.481Z,38.0
2017-08-19T12:18:57.879Z,40.0
2017-08-19T12:19:59.278Z,37.6
2017-08-19T12:21:00.675Z,38.3
2017-08-19T12:22:02.075Z,40.2
2017-08-19T12:23:03.473Z,40.0
2017-08-19T12:24:04.869Z,38.7
2017-08-19T12:25:06.269Z,40.4
2017-08-19T12:26:07.674Z,37.7
2017-08-19T12:27:09.068Z,38.0
2017-08-19T12:28:10.477Z,40.0
2017-08-19T12:29:11.879Z,40.6
2017-08-19T12:30:13.273Z,41.5
2017-08-19T12:31:14.671Z,41.2
2017-08-19T12:32:16.066Z,41.9
2017-08-19T12:33:17.468Z,41.4
2017-08-19T12:34:18.859Z,42.9
2017-08-19T12:35:20.259Z,43.7
2017-08-19T12:36:21.654Z,44.2
2017-08-19T12:37:23.050Z,44.3
2017-08-19T12:38:24.446Z,44.2
2017-08-19T12:39:25.857Z,43.3
2017-08-19T12:40:27.256Z,42.7
2017-08-19T12:41:28.651Z,41.9
2017-08-19T12:42:30.042Z,38.8
2017-08-19T12:43:31.457Z,38.5
2017-08-19T12:44:32.855Z,38.7
2017-08-19T12:45:34.254Z,38.6
2017-08-19T12:46:35.653Z,37.8
2017-08-19T12:47:37.052Z,37.2
2017-08-19T12:48:38.454Z,38.3
2017-08-19T12:49:39.835Z,36.5
2017-08-19T12:50:41.247Z,36.3
2017-08-19T12:51:42.655Z,36.0
2017-08-19T12:52:44.051Z,35.9
2017-08-19T12:53:45.445Z,35.5
2017-08-19T12:54:46.855Z,35.7
2017-08-19T12:55:48.252Z,35.5
2017-08-19T12:56:49.647Z,37.5
2017-08-19T12:57:51.048Z,38.3
2017-08-19T12:58:52.444Z,39.0
2017-08-19T12:59:53.843Z,37.6
2017-08-19T13:00:55.244Z,36.4
2017-08-19T13:01:56.644Z,37.2
2017-08-19T13:02:58.046Z,36.1
2017-08-19T13:03:59.443Z,35.4
2017-08-19T13:05:00.861Z,36.8
2017-08-19T13:06:02.261Z,36.8
2017-08-19T13:07:44.663Z,36.5
2017-08-19T13:08:46.061Z,38.1
2017-08-19T13:09:47.459Z,35.5
2017-08-19T13:10:48.872Z,33.9
2017-08-19T13:11:50.268Z,34.8
2017-08-19T13:12:51.668Z,35.1
2017-08-19T13:13:53.065Z,34.6
2017-08-19T13:14:54.465Z,36.9
2017-08-19T13:15:55.871Z,36.4
2017-08-19T13:16:57.264Z,38.0
2017-08-19T13:17:58.663Z,39.3
2017-08-19T13:19:00.057Z,38.3
2017-08-19T13:20:01.462Z,38.5
2017-08-19T13:21:02.854Z,39.9
2017-08-19T13:22:04.250Z,40.7
2017-08-19T13:23:05.651Z,40.7
2017-08-19T13:24:07.032Z,41.2
2017-08-19T13:25:08.428Z,40.6
2017-08-19T13:26:09.822Z,40.6
2017-08-19T13:27:11.215Z,41.1
2017-08-19T13:28:12.610Z,41.9
2017-08-19T13:29:14.003Z,43.1
2017-08-19T13:30:15.412Z,43.2
2017-08-19T13:31:16.787Z,43.2
2017-08-19T13:32:18.182Z,43.4
2017-08-19T13:33:19.577Z,44.1
2017-08-19T13:34:20.979Z,44.4
2017-08-19T13:35:22.376Z,44.2
2017-08-19T13:36:23.770Z,43.0
2017-08-19T13:37:25.161Z,41.8
2017-08-19T13:38:26.553Z,41.1
2017-08-19T13:39:27.946Z,41.3
2017-08-19T13:40:29.337Z,41.4
2017-08-19T13:41:30.747Z,40.6
2017-08-19T13:42:32.131Z,39.4
2017-08-19T13:43:33.528Z,39.6
2017-08-19T13:44:34.927Z,38.4
2017-08-19T13:45:36.323Z,39.2
2017-08-19T13:46:37.717Z,38.5
2017-08-19T13:47:39.110Z,38.2
2017-08-19T13:48:40.526Z,37.2
2017-08-19T13:49:41.903Z,37.4
2017-08-19T13:50:43.300Z,36.7
2017-08-19T13:51:44.695Z,36.7
2017-08-19T13:52:46.106Z,35.7
2017-08-19T13:53:47.502Z,35.4
2017-08-19T13:54:48.903Z,35.4
2017-08-19T13:55:50.299Z,35.7
2017-08-19T13:56:51.702Z,37.0